sensor_id;sensor_type;location;lat;lon;timestamp;temperature;humidity
22771;DHT22;11552;50.786;4.332;2022-07-23T00:00:18;18.10;99.90
22771;DHT22;11552;50.786;4.332;2022-07-23T00:02:43;18.10;99.90
22771;DHT22;11552;50.786;4.332;2022-07-23T00:05:10;18.20;99.90
22771;DHT22;11552;50.786;4.332;2022-07-23T00:07:36;18.20;99.90
22771;DHT22;11552;50.786;4.332;2022-07-23T00:10:03;18.00;99.90
22771;DHT22;11552;50.786;4.332;2022-07-23T00:12:29;18.00;99.90
22771;DHT22;11552;50.786;4.332;2022-07-23T00:14:55;18.00;99.90
22771;DHT22;11552;50.786;4.332;2022-07-23T00:17:21;18.10;99.90
22771;DHT22;11552;50.786;4.332;2022-07-23T00:19:46;18.10;99.90
22771;DHT22;11552;50.786;4.332;2022-07-23T00:22:13;18.00;99.90
22771;DHT22;11552;50.786;4.332;2022-07-23T00:24:39;18.00;99.90
22771;DHT22;11552;50.786;4.332;2022-07-23T00:27:05;18.00;99.90
22771;DHT22;11552;50.786;4.332;2022-07-23T00:29:31;17.90;99.90
22771;DHT22;11552;50.786;4.332;2022-07-23T00:31:56;17.90;99.90
22771;DHT22;11552;50.786;4.332;2022-07-23T00:34:22;17.90;99.90
22771;DHT22;11552;50.786;4.332;2022-07-23T00:36:47;17.90;99.90
22771;DHT22;11552;50.786;4.332;2022-07-23T00:39:13;17.90;99.90
22771;DHT22;11552;50.786;4.332;2022-07-23T00:41:39;17.80;99.90
22771;DHT22;11552;50.786;4.332;2022-07-23T00:44:24;17.80;99.90
22771;DHT22;11552;50.786;4.332;2022-07-23T00:46:58;17.80;99.90
22771;DHT22;11552;50.786;4.332;2022-07-23T00:49:26;17.90;99.90
22771;DHT22;11552;50.786;4.332;2022-07-23T00:51:52;17.90;99.90
22771;DHT22;11552;50.786;4.332;2022-07-23T00:54:19;17.80;99.90
22771;DHT22;11552;50.786;4.332;2022-07-23T00:56:45;17.80;99.90
22771;DHT22;11552;50.786;4.332;2022-07-23T00:59:12;17.90;99.90
22771;DHT22;11552;50.786;4.332;2022-07-23T01:01:38;18.00;99.90
22771;DHT22;11552;50.786;4.332;2022-07-23T01:04:04;17.90;99.90
22771;DHT22;11552;50.786;4.332;2022-07-23T01:06:36;17.80;99.90
22771;DHT22;11552;50.786;4.332;2022-07-23T01:09:03;17.80;99.90
22771;DHT22;11552;50.786;4.332;2022-07-23T01:11:31;17.70;99.90
22771;DHT22;11552;50.786;4.332;2022-07-23T01:13:56;17.70;99.90
22771;DHT22;11552;50.786;4.332;2022-07-23T01:16:22;17.70;99.90
22771;DHT22;11552;50.786;4.332;2022-07-23T01:18:48;17.60;99.90
22771;DHT22;11552;50.786;4.332;2022-07-23T01:21:13;17.70;99.90
22771;DHT22;11552;50.786;4.332;2022-07-23T01:23:40;17.70;99.90
22771;DHT22;11552;50.786;4.332;2022-07-23T01:26:05;17.70;99.90
22771;DHT22;11552;50.786;4.332;2022-07-23T01:28:31;17.70;99.90
22771;DHT22;11552;50.786;4.332;2022-07-23T01:30:57;17.60;99.90
22771;DHT22;11552;50.786;4.332;2022-07-23T01:33:22;17.60;99.90
22771;DHT22;11552;50.786;4.332;2022-07-23T01:35:48;17.50;99.90
22771;DHT22;11552;50.786;4.332;2022-07-23T01:38:13;17.40;99.90
22771;DHT22;11552;50.786;4.332;2022-07-23T01:40:39;17.40;99.90
22771;DHT22;11552;50.786;4.332;2022-07-23T01:43:05;17.40;99.90
22771;DHT22;11552;50.786;4.332;2022-07-23T01:45:30;17.40;99.90
22771;DHT22;11552;50.786;4.332;2022-07-23T01:47:56;17.40;99.90
22771;DHT22;11552;50.786;4.332;2022-07-23T01:50:21;17.30;99.90
22771;DHT22;11552;50.786;4.332;2022-07-23T01:52:47;17.40;99.90
22771;DHT22;11552;50.786;4.332;2022-07-23T01:55:13;17.40;99.90
22771;DHT22;11552;50.786;4.332;2022-07-23T01:57:38;17.50;99.90
22771;DHT22;11552;50.786;4.332;2022-07-23T02:00:04;17.40;99.90
22771;DHT22;11552;50.786;4.332;2022-07-23T02:02:30;17.40;99.90
22771;DHT22;11552;50.786;4.332;2022-07-23T02:04:56;17.30;99.90
22771;DHT22;11552;50.786;4.332;2022-07-23T02:07:21;17.40;99.90
22771;DHT22;11552;50.786;4.332;2022-07-23T02:09:47;17.30;99.90
22771;DHT22;11552;50.786;4.332;2022-07-23T02:12:12;17.30;99.90
22771;DHT22;11552;50.786;4.332;2022-07-23T02:14:39;17.20;99.90
22771;DHT22;11552;50.786;4.332;2022-07-23T02:17:04;17.20;99.90
22771;DHT22;11552;50.786;4.332;2022-07-23T02:19:30;17.10;99.90
22771;DHT22;11552;50.786;4.332;2022-07-23T02:21:56;17.10;99.90
22771;DHT22;11552;50.786;4.332;2022-07-23T02:24:21;17.10;99.90
22771;DHT22;11552;50.786;4.332;2022-07-23T02:26:47;17.10;99.90
22771;DHT22;11552;50.786;4.332;2022-07-23T02:29:13;16.90;99.90
22771;DHT22;11552;50.786;4.332;2022-07-23T02:31:38;16.90;99.90
22771;DHT22;11552;50.786;4.332;2022-07-23T02:34:04;16.90;99.90
22771;DHT22;11552;50.786;4.332;2022-07-23T02:36:30;17.10;99.90
22771;DHT22;11552;50.786;4.332;2022-07-23T02:38:56;17.10;99.90
22771;DHT22;11552;50.786;4.332;2022-07-23T02:41:22;17.00;99.90
22771;DHT22;11552;50.786;4.332;2022-07-23T02:43:48;17.00;99.90
22771;DHT22;11552;50.786;4.332;2022-07-23T02:46:13;17.10;99.90
22771;DHT22;11552;50.786;4.332;2022-07-23T02:48:39;16.90;99.90
22771;DHT22;11552;50.786;4.332;2022-07-23T02:51:05;16.80;99.90
22771;DHT22;11552;50.786;4.332;2022-07-23T02:53:30;16.90;99.90
22771;DHT22;11552;50.786;4.332;2022-07-23T02:55:56;17.00;99.90
22771;DHT22;11552;50.786;4.332;2022-07-23T02:58:21;16.60;99.90
22771;DHT22;11552;50.786;4.332;2022-07-23T03:00:47;16.40;99.90
22771;DHT22;11552;50.786;4.332;2022-07-23T03:03:13;16.40;99.90
22771;DHT22;11552;50.786;4.332;2022-07-23T03:05:38;16.40;99.90
22771;DHT22;11552;50.786;4.332;2022-07-23T03:08:04;16.40;99.90
22771;DHT22;11552;50.786;4.332;2022-07-23T03:10:30;16.50;99.90
22771;DHT22;11552;50.786;4.332;2022-07-23T03:12:55;16.40;99.90
22771;DHT22;11552;50.786;4.332;2022-07-23T03:15:21;16.50;99.90
22771;DHT22;11552;50.786;4.332;2022-07-23T03:17:47;16.40;99.90
22771;DHT22;11552;50.786;4.332;2022-07-23T03:20:12;16.40;99.90
22771;DHT22;11552;50.786;4.332;2022-07-23T03:22:38;16.30;99.90
22771;DHT22;11552;50.786;4.332;2022-07-23T03:25:04;16.40;99.90
22771;DHT22;11552;50.786;4.332;2022-07-23T03:27:30;16.40;99.90
22771;DHT22;11552;50.786;4.332;2022-07-23T03:29:57;16.50;99.90
22771;DHT22;11552;50.786;4.332;2022-07-23T03:32:24;16.50;99.90
22771;DHT22;11552;50.786;4.332;2022-07-23T03:34:50;16.40;99.90
22771;DHT22;11552;50.786;4.332;2022-07-23T03:37:17;16.30;99.90
22771;DHT22;11552;50.786;4.332;2022-07-23T03:39:43;16.30;99.90
22771;DHT22;11552;50.786;4.332;2022-07-23T03:42:09;16.20;99.90
22771;DHT22;11552;50.786;4.332;2022-07-23T03:44:35;16.30;99.90
22771;DHT22;11552;50.786;4.332;2022-07-23T03:47:03;16.40;99.90
22771;DHT22;11552;50.786;4.332;2022-07-23T03:49:29;16.40;99.90
22771;DHT22;11552;50.786;4.332;2022-07-23T03:51:54;16.40;99.90
22771;DHT22;11552;50.786;4.332;2022-07-23T03:54:20;16.40;99.90
22771;DHT22;11552;50.786;4.332;2022-07-23T03:56:46;16.50;99.90
22771;DHT22;11552;50.786;4.332;2022-07-23T03:59:11;16.40;99.90
22771;DHT22;11552;50.786;4.332;2022-07-23T04:01:37;16.40;99.90
22771;DHT22;11552;50.786;4.332;2022-07-23T04:04:03;16.50;99.90
22771;DHT22;11552;50.786;4.332;2022-07-23T04:06:29;16.50;99.90
22771;DHT22;11552;50.786;4.332;2022-07-23T04:08:54;16.60;99.90
22771;DHT22;11552;50.786;4.332;2022-07-23T04:11:20;16.60;99.90
22771;DHT22;11552;50.786;4.332;2022-07-23T04:13:46;16.50;99.90
22771;DHT22;11552;50.786;4.332;2022-07-23T04:16:12;16.60;99.90
22771;DHT22;11552;50.786;4.332;2022-07-23T04:18:37;16.90;99.90
22771;DHT22;11552;50.786;4.332;2022-07-23T04:21:03;17.00;99.90
22771;DHT22;11552;50.786;4.332;2022-07-23T04:23:29;17.10;99.90
22771;DHT22;11552;50.786;4.332;2022-07-23T04:25:55;17.20;99.90
22771;DHT22;11552;50.786;4.332;2022-07-23T04:28:20;17.30;99.90
22771;DHT22;11552;50.786;4.332;2022-07-23T04:30:46;17.30;99.90
22771;DHT22;11552;50.786;4.332;2022-07-23T04:33:11;17.30;99.90
22771;DHT22;11552;50.786;4.332;2022-07-23T04:35:37;17.30;99.90
22771;DHT22;11552;50.786;4.332;2022-07-23T04:38:03;17.30;99.90
22771;DHT22;11552;50.786;4.332;2022-07-23T04:40:29;17.10;99.90
22771;DHT22;11552;50.786;4.332;2022-07-23T04:42:55;17.20;99.90
22771;DHT22;11552;50.786;4.332;2022-07-23T04:45:20;17.30;99.90
22771;DHT22;11552;50.786;4.332;2022-07-23T04:47:46;17.40;99.90
22771;DHT22;11552;50.786;4.332;2022-07-23T04:50:12;17.40;99.90
22771;DHT22;11552;50.786;4.332;2022-07-23T04:52:38;17.30;99.90
22771;DHT22;11552;50.786;4.332;2022-07-23T04:55:04;17.10;99.90
22771;DHT22;11552;50.786;4.332;2022-07-23T04:57:29;17.30;99.90
22771;DHT22;11552;50.786;4.332;2022-07-23T04:59:55;17.30;99.90
22771;DHT22;11552;50.786;4.332;2022-07-23T05:02:21;17.40;99.90
22771;DHT22;11552;50.786;4.332;2022-07-23T05:04:46;17.50;99.90
22771;DHT22;11552;50.786;4.332;2022-07-23T05:07:12;17.60;99.90
22771;DHT22;11552;50.786;4.332;2022-07-23T05:09:38;17.70;99.90
22771;DHT22;11552;50.786;4.332;2022-07-23T05:12:03;17.60;99.90
22771;DHT22;11552;50.786;4.332;2022-07-23T05:14:29;17.60;99.90
22771;DHT22;11552;50.786;4.332;2022-07-23T05:16:55;17.90;99.90
22771;DHT22;11552;50.786;4.332;2022-07-23T05:19:21;17.80;99.90
22771;DHT22;11552;50.786;4.332;2022-07-23T05:21:46;17.90;99.90
22771;DHT22;11552;50.786;4.332;2022-07-23T05:24:12;18.00;99.90
22771;DHT22;11552;50.786;4.332;2022-07-23T05:26:38;18.20;99.90
22771;DHT22;11552;50.786;4.332;2022-07-23T05:29:03;18.20;99.90
22771;DHT22;11552;50.786;4.332;2022-07-23T05:31:29;18.60;99.90
22771;DHT22;11552;50.786;4.332;2022-07-23T05:33:55;18.70;99.90
22771;DHT22;11552;50.786;4.332;2022-07-23T05:36:20;18.60;99.90
22771;DHT22;11552;50.786;4.332;2022-07-23T05:38:46;18.20;99.90
22771;DHT22;11552;50.786;4.332;2022-07-23T05:41:11;18.30;99.90
22771;DHT22;11552;50.786;4.332;2022-07-23T05:43:37;18.30;99.90
22771;DHT22;11552;50.786;4.332;2022-07-23T05:46:03;18.20;99.90
22771;DHT22;11552;50.786;4.332;2022-07-23T05:48:28;18.40;99.90
22771;DHT22;11552;50.786;4.332;2022-07-23T05:50:54;18.30;99.90
22771;DHT22;11552;50.786;4.332;2022-07-23T05:53:20;18.50;99.90
22771;DHT22;11552;50.786;4.332;2022-07-23T05:55:46;18.50;99.90
22771;DHT22;11552;50.786;4.332;2022-07-23T05:58:11;18.60;99.90
22771;DHT22;11552;50.786;4.332;2022-07-23T06:00:37;18.80;99.90
22771;DHT22;11552;50.786;4.332;2022-07-23T06:03:03;18.80;99.90
22771;DHT22;11552;50.786;4.332;2022-07-23T06:05:28;18.80;99.90
22771;DHT22;11552;50.786;4.332;2022-07-23T06:07:54;18.90;99.90
22771;DHT22;11552;50.786;4.332;2022-07-23T06:10:20;19.20;99.90
22771;DHT22;11552;50.786;4.332;2022-07-23T06:12:46;19.30;99.90
22771;DHT22;11552;50.786;4.332;2022-07-23T06:15:11;19.40;99.90
22771;DHT22;11552;50.786;4.332;2022-07-23T06:17:38;19.40;99.90
22771;DHT22;11552;50.786;4.332;2022-07-23T06:20:08;19.40;99.90
22771;DHT22;11552;50.786;4.332;2022-07-23T06:22:34;19.30;99.90
22771;DHT22;11552;50.786;4.332;2022-07-23T06:25:00;19.00;99.90
22771;DHT22;11552;50.786;4.332;2022-07-23T06:27:26;19.00;99.90
22771;DHT22;11552;50.786;4.332;2022-07-23T06:29:52;19.10;99.90
22771;DHT22;11552;50.786;4.332;2022-07-23T06:32:18;19.40;99.90
22771;DHT22;11552;50.786;4.332;2022-07-23T06:34:43;19.90;99.90
22771;DHT22;11552;50.786;4.332;2022-07-23T06:37:09;20.30;99.90
22771;DHT22;11552;50.786;4.332;2022-07-23T06:39:34;20.60;99.90
22771;DHT22;11552;50.786;4.332;2022-07-23T06:42:00;21.00;99.90
22771;DHT22;11552;50.786;4.332;2022-07-23T06:44:26;21.30;99.90
22771;DHT22;11552;50.786;4.332;2022-07-23T06:46:52;21.40;99.90
22771;DHT22;11552;50.786;4.332;2022-07-23T06:49:17;21.60;99.90
22771;DHT22;11552;50.786;4.332;2022-07-23T06:51:43;21.80;99.90
22771;DHT22;11552;50.786;4.332;2022-07-23T06:54:09;21.90;99.90
22771;DHT22;11552;50.786;4.332;2022-07-23T06:56:35;21.90;99.90
22771;DHT22;11552;50.786;4.332;2022-07-23T06:59:00;22.10;99.90
22771;DHT22;11552;50.786;4.332;2022-07-23T07:01:26;21.70;99.90
22771;DHT22;11552;50.786;4.332;2022-07-23T07:03:52;21.60;99.90
22771;DHT22;11552;50.786;4.332;2022-07-23T07:06:18;21.60;99.90
22771;DHT22;11552;50.786;4.332;2022-07-23T07:08:43;21.30;99.90
22771;DHT22;11552;50.786;4.332;2022-07-23T07:11:09;21.20;99.90
22771;DHT22;11552;50.786;4.332;2022-07-23T07:13:36;20.90;99.90
22771;DHT22;11552;50.786;4.332;2022-07-23T07:16:02;21.00;99.90
22771;DHT22;11552;50.786;4.332;2022-07-23T07:18:28;21.20;99.90
22771;DHT22;11552;50.786;4.332;2022-07-23T07:20:54;21.30;99.90
22771;DHT22;11552;50.786;4.332;2022-07-23T07:23:20;21.10;99.90
22771;DHT22;11552;50.786;4.332;2022-07-23T07:25:47;21.20;99.90
22771;DHT22;11552;50.786;4.332;2022-07-23T07:28:13;21.40;99.90
22771;DHT22;11552;50.786;4.332;2022-07-23T07:30:38;21.60;99.90
22771;DHT22;11552;50.786;4.332;2022-07-23T07:33:04;21.60;99.90
22771;DHT22;11552;50.786;4.332;2022-07-23T07:35:30;21.90;99.90
22771;DHT22;11552;50.786;4.332;2022-07-23T07:37:58;22.00;99.90
22771;DHT22;11552;50.786;4.332;2022-07-23T07:40:24;22.00;99.90
22771;DHT22;11552;50.786;4.332;2022-07-23T07:42:51;22.00;99.90
22771;DHT22;11552;50.786;4.332;2022-07-23T07:45:20;22.20;99.90
22771;DHT22;11552;50.786;4.332;2022-07-23T07:47:46;22.50;99.90
22771;DHT22;11552;50.786;4.332;2022-07-23T07:50:12;22.80;99.90
22771;DHT22;11552;50.786;4.332;2022-07-23T07:52:38;23.00;99.90
22771;DHT22;11552;50.786;4.332;2022-07-23T07:55:07;23.10;99.90
22771;DHT22;11552;50.786;4.332;2022-07-23T07:57:34;23.20;99.90
22771;DHT22;11552;50.786;4.332;2022-07-23T08:00:00;23.90;99.90
22771;DHT22;11552;50.786;4.332;2022-07-23T08:02:27;25.70;99.90
22771;DHT22;11552;50.786;4.332;2022-07-23T08:04:52;27.60;99.90
22771;DHT22;11552;50.786;4.332;2022-07-23T08:07:18;29.50;99.40
22771;DHT22;11552;50.786;4.332;2022-07-23T08:09:44;31.30;93.50
22771;DHT22;11552;50.786;4.332;2022-07-23T08:12:20;30.40;93.70
22771;DHT22;11552;50.786;4.332;2022-07-23T08:14:46;29.90;94.30
22771;DHT22;11552;50.786;4.332;2022-07-23T08:17:12;30.90;92.00
22771;DHT22;11552;50.786;4.332;2022-07-23T08:19:37;31.90;90.30
22771;DHT22;11552;50.786;4.332;2022-07-23T08:22:03;33.40;84.10
22771;DHT22;11552;50.786;4.332;2022-07-23T08:24:29;34.10;76.90
22771;DHT22;11552;50.786;4.332;2022-07-23T08:27:02;36.10;71.10
22771;DHT22;11552;50.786;4.332;2022-07-23T08:29:29;36.60;65.20
22771;DHT22;11552;50.786;4.332;2022-07-23T08:31:55;35.80;65.40
22771;DHT22;11552;50.786;4.332;2022-07-23T08:34:21;35.00;67.70
22771;DHT22;11552;50.786;4.332;2022-07-23T08:36:46;35.80;64.50
22771;DHT22;11552;50.786;4.332;2022-07-23T08:39:12;36.40;61.70
22771;DHT22;11552;50.786;4.332;2022-07-23T08:41:39;38.20;57.40
22771;DHT22;11552;50.786;4.332;2022-07-23T08:44:07;39.30;55.10
22771;DHT22;11552;50.786;4.332;2022-07-23T08:46:34;39.70;52.50
22771;DHT22;11552;50.786;4.332;2022-07-23T08:49:01;39.60;51.10
22771;DHT22;11552;50.786;4.332;2022-07-23T08:51:28;39.10;51.40
22771;DHT22;11552;50.786;4.332;2022-07-23T08:53:56;39.70;50.00
22771;DHT22;11552;50.786;4.332;2022-07-23T08:56:23;40.30;48.90
22771;DHT22;11552;50.786;4.332;2022-07-23T08:58:53;40.80;47.50
22771;DHT22;11552;50.786;4.332;2022-07-23T09:01:19;41.30;46.30
22771;DHT22;11552;50.786;4.332;2022-07-23T09:03:45;42.00;45.10
22771;DHT22;11552;50.786;4.332;2022-07-23T09:06:11;42.80;43.40
22771;DHT22;11552;50.786;4.332;2022-07-23T09:08:42;42.90;42.50
22771;DHT22;11552;50.786;4.332;2022-07-23T09:11:09;43.10;41.40
22771;DHT22;11552;50.786;4.332;2022-07-23T09:18:38;41.60;41.10
22771;DHT22;11552;50.786;4.332;2022-07-23T09:26:25;43.20;39.10
22771;DHT22;11552;50.786;4.332;2022-07-23T09:29:14;41.20;39.10
22771;DHT22;11552;50.786;4.332;2022-07-23T09:34:12;41.50;39.20
22771;DHT22;11552;50.786;4.332;2022-07-23T09:36:38;42.90;38.00
22771;DHT22;11552;50.786;4.332;2022-07-23T09:39:05;43.90;37.40
22771;DHT22;11552;50.786;4.332;2022-07-23T09:41:42;43.40;37.20
22771;DHT22;11552;50.786;4.332;2022-07-23T09:44:16;43.10;37.70
22771;DHT22;11552;50.786;4.332;2022-07-23T09:46:44;43.70;36.70
22771;DHT22;11552;50.786;4.332;2022-07-23T09:49:16;43.60;36.50
22771;DHT22;11552;50.786;4.332;2022-07-23T09:51:54;44.10;36.10
22771;DHT22;11552;50.786;4.332;2022-07-23T09:54:24;43.40;36.70
22771;DHT22;11552;50.786;4.332;2022-07-23T09:56:58;42.50;36.80
22771;DHT22;11552;50.786;4.332;2022-07-23T09:59:27;39.60;40.00
22771;DHT22;11552;50.786;4.332;2022-07-23T10:01:55;38.90;40.50
22771;DHT22;11552;50.786;4.332;2022-07-23T10:04:23;39.20;41.30
22771;DHT22;11552;50.786;4.332;2022-07-23T10:06:55;40.90;39.70
22771;DHT22;11552;50.786;4.332;2022-07-23T10:09:28;41.40;38.60
22771;DHT22;11552;50.786;4.332;2022-07-23T10:11:57;40.20;39.40
22771;DHT22;11552;50.786;4.332;2022-07-23T10:14:32;42.00;38.80
22771;DHT22;11552;50.786;4.332;2022-07-23T10:17:00;43.30;36.10
22771;DHT22;11552;50.786;4.332;2022-07-23T10:19:27;44.30;34.90
22771;DHT22;11552;50.786;4.332;2022-07-23T10:22:05;44.80;35.40
22771;DHT22;11552;50.786;4.332;2022-07-23T10:25:00;45.10;34.10
22771;DHT22;11552;50.786;4.332;2022-07-23T10:33:50;38.90;38.50
22771;DHT22;11552;50.786;4.332;2022-07-23T10:36:40;39.00;39.60
22771;DHT22;11552;50.786;4.332;2022-07-23T10:39:34;38.30;40.40
22771;DHT22;11552;50.786;4.332;2022-07-23T10:42:11;37.30;42.00
22771;DHT22;11552;50.786;4.332;2022-07-23T10:44:46;36.20;43.50
22771;DHT22;11552;50.786;4.332;2022-07-23T10:47:20;35.50;45.20
22771;DHT22;11552;50.786;4.332;2022-07-23T10:50:29;34.50;46.90
22771;DHT22;11552;50.786;4.332;2022-07-23T10:58:19;31.40;52.10
22771;DHT22;11552;50.786;4.332;2022-07-23T11:00:45;31.00;53.40
22771;DHT22;11552;50.786;4.332;2022-07-23T11:03:31;30.70;54.40
22771;DHT22;11552;50.786;4.332;2022-07-23T11:06:03;30.60;54.90
22771;DHT22;11552;50.786;4.332;2022-07-23T11:08:29;30.40;56.10
22771;DHT22;11552;50.786;4.332;2022-07-23T11:11:13;30.10;55.40
22771;DHT22;11552;50.786;4.332;2022-07-23T11:13:47;30.20;56.40
22771;DHT22;11552;50.786;4.332;2022-07-23T11:16:15;30.20;55.70
22771;DHT22;11552;50.786;4.332;2022-07-23T11:32:03;29.00;58.60
22771;DHT22;11552;50.786;4.332;2022-07-23T11:37:10;29.20;57.30
22771;DHT22;11552;50.786;4.332;2022-07-23T11:39:44;29.40;56.80
22771;DHT22;11552;50.786;4.332;2022-07-23T11:42:18;29.60;56.70
22771;DHT22;11552;50.786;4.332;2022-07-23T11:44:49;29.90;56.10
22771;DHT22;11552;50.786;4.332;2022-07-23T11:47:14;29.60;56.90
22771;DHT22;11552;50.786;4.332;2022-07-23T11:52:21;28.90;59.50
22771;DHT22;11552;50.786;4.332;2022-07-23T11:54:50;28.70;60.40
22771;DHT22;11552;50.786;4.332;2022-07-23T11:57:17;28.60;59.70
22771;DHT22;11552;50.786;4.332;2022-07-23T11:59:43;28.70;61.30
22771;DHT22;11552;50.786;4.332;2022-07-23T12:02:11;28.80;61.00
22771;DHT22;11552;50.786;4.332;2022-07-23T12:04:38;28.90;59.60
22771;DHT22;11552;50.786;4.332;2022-07-23T12:07:04;29.20;60.40
22771;DHT22;11552;50.786;4.332;2022-07-23T12:09:30;29.30;59.20
22771;DHT22;11552;50.786;4.332;2022-07-23T12:11:59;29.40;59.50
22771;DHT22;11552;50.786;4.332;2022-07-23T12:14:25;29.30;59.50
22771;DHT22;11552;50.786;4.332;2022-07-23T12:17:08;29.30;59.10
22771;DHT22;11552;50.786;4.332;2022-07-23T12:19:34;29.40;58.90
22771;DHT22;11552;50.786;4.332;2022-07-23T12:22:00;29.50;58.30
22771;DHT22;11552;50.786;4.332;2022-07-23T12:24:26;29.70;57.90
22771;DHT22;11552;50.786;4.332;2022-07-23T12:29:19;29.80;58.40
22771;DHT22;11552;50.786;4.332;2022-07-23T12:31:44;29.40;58.90
22771;DHT22;11552;50.786;4.332;2022-07-23T12:34:16;29.30;59.00
22771;DHT22;11552;50.786;4.332;2022-07-23T12:36:43;29.20;59.30
22771;DHT22;11552;50.786;4.332;2022-07-23T12:39:09;29.20;59.50
22771;DHT22;11552;50.786;4.332;2022-07-23T12:41:51;29.10;60.60
22771;DHT22;11552;50.786;4.332;2022-07-23T12:44:17;29.50;59.70
22771;DHT22;11552;50.786;4.332;2022-07-23T12:46:50;29.50;59.00
22771;DHT22;11552;50.786;4.332;2022-07-23T12:49:26;29.60;59.60
22771;DHT22;11552;50.786;4.332;2022-07-23T12:51:52;29.90;58.60
22771;DHT22;11552;50.786;4.332;2022-07-23T12:54:17;29.70;59.20
22771;DHT22;11552;50.786;4.332;2022-07-23T12:56:46;29.70;58.40
22771;DHT22;11552;50.786;4.332;2022-07-23T12:59:14;29.70;58.70
22771;DHT22;11552;50.786;4.332;2022-07-23T13:01:45;29.70;59.00
22771;DHT22;11552;50.786;4.332;2022-07-23T13:04:23;29.50;59.20
22771;DHT22;11552;50.786;4.332;2022-07-23T13:06:52;29.50;60.00
22771;DHT22;11552;50.786;4.332;2022-07-23T13:09:26;29.60;60.30
22771;DHT22;11552;50.786;4.332;2022-07-23T13:11:54;29.50;59.10
22771;DHT22;11552;50.786;4.332;2022-07-23T13:14:20;29.80;59.00
22771;DHT22;11552;50.786;4.332;2022-07-23T13:16:50;29.70;58.90
22771;DHT22;11552;50.786;4.332;2022-07-23T13:19:16;29.80;58.10
22771;DHT22;11552;50.786;4.332;2022-07-23T13:21:42;29.90;58.80
22771;DHT22;11552;50.786;4.332;2022-07-23T13:24:12;29.90;58.60
22771;DHT22;11552;50.786;4.332;2022-07-23T13:26:38;29.80;58.00
22771;DHT22;11552;50.786;4.332;2022-07-23T13:29:05;29.70;59.30
22771;DHT22;11552;50.786;4.332;2022-07-23T13:31:31;29.90;58.20
22771;DHT22;11552;50.786;4.332;2022-07-23T13:33:57;30.10;58.30
22771;DHT22;11552;50.786;4.332;2022-07-23T13:36:22;30.00;58.30
22771;DHT22;11552;50.786;4.332;2022-07-23T13:38:48;30.20;58.80
22771;DHT22;11552;50.786;4.332;2022-07-23T13:41:14;30.10;58.10
22771;DHT22;11552;50.786;4.332;2022-07-23T13:43:41;30.00;58.40
22771;DHT22;11552;50.786;4.332;2022-07-23T13:46:07;30.10;58.30
22771;DHT22;11552;50.786;4.332;2022-07-23T13:48:33;30.20;58.50
22771;DHT22;11552;50.786;4.332;2022-07-23T13:50:59;30.20;59.10
22771;DHT22;11552;50.786;4.332;2022-07-23T13:53:24;29.90;59.50
22771;DHT22;11552;50.786;4.332;2022-07-23T13:55:53;30.20;58.80
22771;DHT22;11552;50.786;4.332;2022-07-23T13:58:19;30.20;59.20
22771;DHT22;11552;50.786;4.332;2022-07-23T14:00:48;30.20;59.10
22771;DHT22;11552;50.786;4.332;2022-07-23T14:03:17;30.40;57.40
22771;DHT22;11552;50.786;4.332;2022-07-23T14:05:43;30.60;57.90
22771;DHT22;11552;50.786;4.332;2022-07-23T14:13:09;30.30;58.50
22771;DHT22;11552;50.786;4.332;2022-07-23T14:15:35;30.50;58.80
22771;DHT22;11552;50.786;4.332;2022-07-23T14:18:02;30.60;57.70
22771;DHT22;11552;50.786;4.332;2022-07-23T14:20:28;30.70;58.00
22771;DHT22;11552;50.786;4.332;2022-07-23T14:22:53;30.70;58.30
22771;DHT22;11552;50.786;4.332;2022-07-23T14:25:21;30.80;58.10
22771;DHT22;11552;50.786;4.332;2022-07-23T14:27:46;30.70;58.10
22771;DHT22;11552;50.786;4.332;2022-07-23T14:30:13;30.40;59.20
22771;DHT22;11552;50.786;4.332;2022-07-23T14:32:40;30.60;58.30
22771;DHT22;11552;50.786;4.332;2022-07-23T14:35:06;30.70;57.90
22771;DHT22;11552;50.786;4.332;2022-07-23T14:37:32;30.90;57.90
22771;DHT22;11552;50.786;4.332;2022-07-23T14:39:58;30.80;57.70
22771;DHT22;11552;50.786;4.332;2022-07-23T14:42:23;30.90;57.50
22771;DHT22;11552;50.786;4.332;2022-07-23T14:44:49;31.10;58.00
22771;DHT22;11552;50.786;4.332;2022-07-23T14:47:15;31.20;57.90
22771;DHT22;11552;50.786;4.332;2022-07-23T14:49:41;31.00;56.40
22771;DHT22;11552;50.786;4.332;2022-07-23T14:52:07;31.10;57.00
22771;DHT22;11552;50.786;4.332;2022-07-23T14:54:33;30.90;57.40
22771;DHT22;11552;50.786;4.332;2022-07-23T14:56:59;30.70;57.50
22771;DHT22;11552;50.786;4.332;2022-07-23T14:59:26;30.90;57.70
22771;DHT22;11552;50.786;4.332;2022-07-23T15:01:52;31.00;57.50
22771;DHT22;11552;50.786;4.332;2022-07-23T15:04:18;30.70;57.90
22771;DHT22;11552;50.786;4.332;2022-07-23T15:06:44;30.70;58.80
22771;DHT22;11552;50.786;4.332;2022-07-23T15:09:10;30.70;58.30
22771;DHT22;11552;50.786;4.332;2022-07-23T15:11:36;30.10;59.00
22771;DHT22;11552;50.786;4.332;2022-07-23T15:14:06;30.30;59.10
22771;DHT22;11552;50.786;4.332;2022-07-23T15:16:33;30.50;58.80
22771;DHT22;11552;50.786;4.332;2022-07-23T15:18:59;30.40;58.50
22771;DHT22;11552;50.786;4.332;2022-07-23T15:21:25;30.20;59.30
22771;DHT22;11552;50.786;4.332;2022-07-23T15:23:50;30.30;59.50
22771;DHT22;11552;50.786;4.332;2022-07-23T15:26:16;30.40;59.50
22771;DHT22;11552;50.786;4.332;2022-07-23T15:28:43;30.30;60.00
22771;DHT22;11552;50.786;4.332;2022-07-23T15:31:09;30.40;59.70
22771;DHT22;11552;50.786;4.332;2022-07-23T15:33:35;30.40;59.70
22771;DHT22;11552;50.786;4.332;2022-07-23T15:36:01;30.30;59.70
22771;DHT22;11552;50.786;4.332;2022-07-23T15:38:27;30.10;60.20
22771;DHT22;11552;50.786;4.332;2022-07-23T15:40:54;30.30;59.80
22771;DHT22;11552;50.786;4.332;2022-07-23T15:43:20;30.40;59.20
22771;DHT22;11552;50.786;4.332;2022-07-23T15:45:46;30.60;59.30
22771;DHT22;11552;50.786;4.332;2022-07-23T15:48:12;30.40;59.10
22771;DHT22;11552;50.786;4.332;2022-07-23T15:50:37;30.10;59.30
22771;DHT22;11552;50.786;4.332;2022-07-23T15:53:03;30.10;59.40
22771;DHT22;11552;50.786;4.332;2022-07-23T15:55:29;30.30;59.40
22771;DHT22;11552;50.786;4.332;2022-07-23T15:57:54;30.20;59.60
22771;DHT22;11552;50.786;4.332;2022-07-23T16:00:20;30.50;59.20
22771;DHT22;11552;50.786;4.332;2022-07-23T16:02:46;30.50;59.40
22771;DHT22;11552;50.786;4.332;2022-07-23T16:05:11;30.60;59.30
22771;DHT22;11552;50.786;4.332;2022-07-23T16:07:37;30.70;59.40
22771;DHT22;11552;50.786;4.332;2022-07-23T16:10:05;30.40;59.20
22771;DHT22;11552;50.786;4.332;2022-07-23T16:12:31;30.20;60.50
22771;DHT22;11552;50.786;4.332;2022-07-23T16:14:56;29.90;60.40
22771;DHT22;11552;50.786;4.332;2022-07-23T16:17:22;29.80;60.60
22771;DHT22;11552;50.786;4.332;2022-07-23T16:19:48;29.70;60.20